sensor_id;sensor_type;location;lat;lon;timestamp;temperature;humidity
54516;DHT22;40422;45.892;4.738;2023-02-15T04:02:06;0.80;99.90
54516;DHT22;40422;45.892;4.738;2023-02-15T04:04:37;0.80;99.90
54516;DHT22;40422;45.892;4.738;2023-02-15T04:07:07;0.80;99.90
54516;DHT22;40422;45.892;4.738;2023-02-15T04:09:32;0.80;99.90
54516;DHT22;40422;45.892;4.738;2023-02-15T04:12:16;0.80;99.90
54516;DHT22;40422;45.892;4.738;2023-02-15T04:14:42;0.70;99.90
54516;DHT22;40422;45.892;4.738;2023-02-15T04:17:26;0.70;99.90
54516;DHT22;40422;45.892;4.738;2023-02-15T04:19:52;0.70;99.90
54516;DHT22;40422;45.892;4.738;2023-02-15T04:22:36;0.60;99.90
54516;DHT22;40422;45.892;4.738;2023-02-15T04:25:20;0.50;99.90
54516;DHT22;40422;45.892;4.738;2023-02-15T04:27:51;0.50;99.90
54516;DHT22;40422;45.892;4.738;2023-02-15T04:30:19;0.50;99.90
54516;DHT22;40422;45.892;4.738;2023-02-15T04:32:45;0.40;99.90
54516;DHT22;40422;45.892;4.738;2023-02-15T04:35:11;0.40;99.90
54516;DHT22;40422;45.892;4.738;2023-02-15T04:37:38;0.40;99.90
54516;DHT22;40422;45.892;4.738;2023-02-15T04:40:06;0.40;99.90
54516;DHT22;40422;45.892;4.738;2023-02-15T04:42:33;0.50;99.90
54516;DHT22;40422;45.892;4.738;2023-02-15T04:44:58;0.50;99.90
54516;DHT22;40422;45.892;4.738;2023-02-15T04:47:24;0.50;99.90
54516;DHT22;40422;45.892;4.738;2023-02-15T04:49:49;0.50;99.90
54516;DHT22;40422;45.892;4.738;2023-02-15T04:52:15;0.50;99.90
54516;DHT22;40422;45.892;4.738;2023-02-15T04:54:43;0.50;99.90
54516;DHT22;40422;45.892;4.738;2023-02-15T04:57:09;0.50;99.90
54516;DHT22;40422;45.892;4.738;2023-02-15T04:59:34;0.40;99.90
54516;DHT22;40422;45.892;4.738;2023-02-15T05:02:00;0.30;99.90
54516;DHT22;40422;45.892;4.738;2023-02-15T05:04:26;0.30;99.90
54516;DHT22;40422;45.892;4.738;2023-02-15T05:06:51;0.30;99.90
54516;DHT22;40422;45.892;4.738;2023-02-15T05:09:17;0.20;99.90
54516;DHT22;40422;45.892;4.738;2023-02-15T05:11:43;0.20;99.90
54516;DHT22;40422;45.892;4.738;2023-02-15T05:14:08;0.20;99.90
54516;DHT22;40422;45.892;4.738;2023-02-15T05:16:34;0.20;99.90
54516;DHT22;40422;45.892;4.738;2023-02-15T05:19:00;0.10;99.90
54516;DHT22;40422;45.892;4.738;2023-02-15T05:21:26;0.10;99.90
54516;DHT22;40422;45.892;4.738;2023-02-15T05:23:52;0.20;99.90
54516;DHT22;40422;45.892;4.738;2023-02-15T05:26:20;0.20;99.90
54516;DHT22;40422;45.892;4.738;2023-02-15T05:29:04;0.20;99.90
54516;DHT22;40422;45.892;4.738;2023-02-15T05:31:31;0.20;99.90
54516;DHT22;40422;45.892;4.738;2023-02-15T05:33:57;0.10;99.90
54516;DHT22;40422;45.892;4.738;2023-02-15T05:36:22;0.20;99.90
54516;DHT22;40422;45.892;4.738;2023-02-15T05:38:48;0.20;99.90
54516;DHT22;40422;45.892;4.738;2023-02-15T05:41:14;0.20;99.90
54516;DHT22;40422;45.892;4.738;2023-02-15T05:43:40;0.20;99.90
54516;DHT22;40422;45.892;4.738;2023-02-15T05:46:06;0.20;99.90
54516;DHT22;40422;45.892;4.738;2023-02-15T05:48:32;0.20;99.90
54516;DHT22;40422;45.892;4.738;2023-02-15T05:51:09;0.20;99.90
54516;DHT22;40422;45.892;4.738;2023-02-15T05:53:37;0.30;99.90
54516;DHT22;40422;45.892;4.738;2023-02-15T05:56:04;0.30;99.90
54516;DHT22;40422;45.892;4.738;2023-02-15T05:58:36;0.30;99.90
54516;DHT22;40422;45.892;4.738;2023-02-15T06:01:13;0.40;99.90
54516;DHT22;40422;45.892;4.738;2023-02-15T06:03:39;0.40;99.90
54516;DHT22;40422;45.892;4.738;2023-02-15T06:06:06;0.50;99.90
54516;DHT22;40422;45.892;4.738;2023-02-15T06:08:33;0.50;99.90
54516;DHT22;40422;45.892;4.738;2023-02-15T06:10:58;0.50;99.90
54516;DHT22;40422;45.892;4.738;2023-02-15T06:13:24;0.60;99.90
54516;DHT22;40422;45.892;4.738;2023-02-15T06:15:50;0.70;99.90
54516;DHT22;40422;45.892;4.738;2023-02-15T06:18:15;0.70;99.90
54516;DHT22;40422;45.892;4.738;2023-02-15T06:20:41;0.90;99.90
54516;DHT22;40422;45.892;4.738;2023-02-15T06:23:06;0.90;99.90
54516;DHT22;40422;45.892;4.738;2023-02-15T06:25:32;1.00;99.90
54516;DHT22;40422;45.892;4.738;2023-02-15T06:27:58;1.10;99.90
54516;DHT22;40422;45.892;4.738;2023-02-15T06:30:24;1.10;99.90
54516;DHT22;40422;45.892;4.738;2023-02-15T06:32:49;1.20;99.90
54516;DHT22;40422;45.892;4.738;2023-02-15T06:35:15;1.30;99.90
54516;DHT22;40422;45.892;4.738;2023-02-15T06:37:40;1.30;99.90
54516;DHT22;40422;45.892;4.738;2023-02-15T06:40:07;1.40;99.90
54516;DHT22;40422;45.892;4.738;2023-02-15T06:42:33;1.40;99.90
54516;DHT22;40422;45.892;4.738;2023-02-15T06:44:58;1.50;99.90
54516;DHT22;40422;45.892;4.738;2023-02-15T06:47:25;1.50;99.90
54516;DHT22;40422;45.892;4.738;2023-02-15T06:49:51;1.60;99.90
54516;DHT22;40422;45.892;4.738;2023-02-15T06:52:16;1.70;99.90
54516;DHT22;40422;45.892;4.738;2023-02-15T06:54:42;1.70;99.90
54516;DHT22;40422;45.892;4.738;2023-02-15T06:57:07;1.70;99.90
54516;DHT22;40422;45.892;4.738;2023-02-15T06:59:34;1.80;99.90
54516;DHT22;40422;45.892;4.738;2023-02-15T07:02:00;1.90;99.90
54516;DHT22;40422;45.892;4.738;2023-02-15T07:04:26;2.10;99.90
54516;DHT22;40422;45.892;4.738;2023-02-15T07:06:53;2.30;99.90
54516;DHT22;40422;45.892;4.738;2023-02-15T07:09:19;2.60;99.90
54516;DHT22;40422;45.892;4.738;2023-02-15T07:11:45;2.70;99.90
54516;DHT22;40422;45.892;4.738;2023-02-15T07:14:29;2.80;99.90
54516;DHT22;40422;45.892;4.738;2023-02-15T07:16:54;2.90;99.90
54516;DHT22;40422;45.892;4.738;2023-02-15T07:19:20;2.90;99.90
54516;DHT22;40422;45.892;4.738;2023-02-15T07:21:46;3.00;99.90
54516;DHT22;40422;45.892;4.738;2023-02-15T07:24:11;3.00;99.90
54516;DHT22;40422;45.892;4.738;2023-02-15T07:26:37;3.00;99.90
54516;DHT22;40422;45.892;4.738;2023-02-15T07:29:03;3.00;99.90
54516;DHT22;40422;45.892;4.738;2023-02-15T07:31:28;3.00;99.90
54516;DHT22;40422;45.892;4.738;2023-02-15T07:33:54;3.10;99.90
54516;DHT22;40422;45.892;4.738;2023-02-15T07:36:20;3.10;99.90
54516;DHT22;40422;45.892;4.738;2023-02-15T07:38:45;3.10;99.90
54516;DHT22;40422;45.892;4.738;2023-02-15T07:41:14;3.10;99.90
54516;DHT22;40422;45.892;4.738;2023-02-15T07:43:42;3.20;99.90
54516;DHT22;40422;45.892;4.738;2023-02-15T07:46:13;3.30;99.90
54516;DHT22;40422;45.892;4.738;2023-02-15T07:48:40;3.30;99.90
54516;DHT22;40422;45.892;4.738;2023-02-15T07:51:08;3.40;99.90
54516;DHT22;40422;45.892;4.738;2023-02-15T07:53:35;3.50;99.90
54516;DHT22;40422;45.892;4.738;2023-02-15T07:56:03;3.60;99.90
54516;DHT22;40422;45.892;4.738;2023-02-15T07:58:29;3.70;99.90
54516;DHT22;40422;45.892;4.738;2023-02-15T08:01:14;3.80;99.90
54516;DHT22;40422;45.892;4.738;2023-02-15T08:03:40;3.90;99.90
54516;DHT22;40422;45.892;4.738;2023-02-15T08:06:06;4.00;99.90
54516;DHT22;40422;45.892;4.738;2023-02-15T08:08:34;4.10;99.90
54516;DHT22;40422;45.892;4.738;2023-02-15T08:13:52;4.40;99.90
54516;DHT22;40422;45.892;4.738;2023-02-15T08:21:30;4.70;99.90
54516;DHT22;40422;45.892;4.738;2023-02-15T08:23:57;4.80;99.90
54516;DHT22;40422;45.892;4.738;2023-02-15T08:26:23;4.90;99.90
54516;DHT22;40422;45.892;4.738;2023-02-15T08:28:50;4.90;99.90
54516;DHT22;40422;45.892;4.738;2023-02-15T08:31:17;5.00;99.90
54516;DHT22;40422;45.892;4.738;2023-02-15T08:33:44;5.00;99.90
54516;DHT22;40422;45.892;4.738;2023-02-15T08:36:12;5.10;99.90
54516;DHT22;40422;45.892;4.738;2023-02-15T08:38:40;5.20;99.90
54516;DHT22;40422;45.892;4.738;2023-02-15T08:41:14;5.30;99.90
54516;DHT22;40422;45.892;4.738;2023-02-15T08:43:41;5.60;99.90
54516;DHT22;40422;45.892;4.738;2023-02-15T08:46:08;5.80;99.90
54516;DHT22;40422;45.892;4.738;2023-02-15T08:48:34;6.10;99.90
54516;DHT22;40422;45.892;4.738;2023-02-15T08:51:05;6.30;99.90
54516;DHT22;40422;45.892;4.738;2023-02-15T08:53:31;6.50;99.90
54516;DHT22;40422;45.892;4.738;2023-02-15T08:55:58;6.70;99.90
54516;DHT22;40422;45.892;4.738;2023-02-15T08:58:24;6.80;99.90
54516;DHT22;40422;45.892;4.738;2023-02-15T09:00:51;7.00;99.90
54516;DHT22;40422;45.892;4.738;2023-02-15T09:03:16;7.10;99.90
54516;DHT22;40422;45.892;4.738;2023-02-15T09:05:42;7.20;99.90
54516;DHT22;40422;45.892;4.738;2023-02-15T09:08:08;7.40;99.90
54516;DHT22;40422;45.892;4.738;2023-02-15T09:10:33;7.50;99.90
54516;DHT22;40422;45.892;4.738;2023-02-15T09:12:59;7.50;99.90
54516;DHT22;40422;45.892;4.738;2023-02-15T09:15:25;7.60;99.90
54516;DHT22;40422;45.892;4.738;2023-02-15T09:17:50;7.70;99.90
54516;DHT22;40422;45.892;4.738;2023-02-15T09:20:16;7.70;99.90
54516;DHT22;40422;45.892;4.738;2023-02-15T09:22:43;7.70;99.90
54516;DHT22;40422;45.892;4.738;2023-02-15T09:25:09;7.70;99.90
54516;DHT22;40422;45.892;4.738;2023-02-15T09:27:39;7.50;99.90
54516;DHT22;40422;45.892;4.738;2023-02-15T09:30:05;7.60;99.90
54516;DHT22;40422;45.892;4.738;2023-02-15T09:32:31;7.70;99.90
54516;DHT22;40422;45.892;4.738;2023-02-15T09:34:57;7.80;99.90
54516;DHT22;40422;45.892;4.738;2023-02-15T09:37:23;7.70;99.90
54516;DHT22;40422;45.892;4.738;2023-02-15T09:39:48;7.80;99.90
54516;DHT22;40422;45.892;4.738;2023-02-15T09:42:52;7.70;99.90
54516;DHT22;40422;45.892;4.738;2023-02-15T09:45:54;7.70;99.90
54516;DHT22;40422;45.892;4.738;2023-02-15T09:48:38;7.50;99.90
54516;DHT22;40422;45.892;4.738;2023-02-15T09:51:21;7.50;99.90
54516;DHT22;40422;45.892;4.738;2023-02-15T09:54:20;7.60;99.90
54516;DHT22;40422;45.892;4.738;2023-02-15T09:56:57;7.70;99.90
54516;DHT22;40422;45.892;4.738;2023-02-15T10:04:59;8.00;99.90
54516;DHT22;40422;45.892;4.738;2023-02-15T10:07:42;8.10;99.90
54516;DHT22;40422;45.892;4.738;2023-02-15T10:10:31;8.20;99.90
54516;DHT22;40422;45.892;4.738;2023-02-15T10:13:13;8.20;99.90
54516;DHT22;40422;45.892;4.738;2023-02-15T10:15:45;8.40;99.90
54516;DHT22;40422;45.892;4.738;2023-02-15T10:18:40;8.40;99.90
54516;DHT22;40422;45.892;4.738;2023-02-15T10:21:32;8.50;99.90
54516;DHT22;40422;45.892;4.738;2023-02-15T10:24:17;8.60;99.90
54516;DHT22;40422;45.892;4.738;2023-02-15T10:26:45;8.90;99.90
54516;DHT22;40422;45.892;4.738;2023-02-15T10:29:35;9.10;99.90
54516;DHT22;40422;45.892;4.738;2023-02-15T10:32:20;9.40;99.90
54516;DHT22;40422;45.892;4.738;2023-02-15T10:35:08;9.60;99.90
54516;DHT22;40422;45.892;4.738;2023-02-15T10:38:11;9.70;99.90
54516;DHT22;40422;45.892;4.738;2023-02-15T10:46:26;10.10;99.90
54516;DHT22;40422;45.892;4.738;2023-02-15T10:57:34;10.70;99.90
54516;DHT22;40422;45.892;4.738;2023-02-15T11:00:27;10.80;99.90
54516;DHT22;40422;45.892;4.738;2023-02-15T11:03:05;11.10;99.90
54516;DHT22;40422;45.892;4.738;2023-02-15T11:08:24;11.40;99.90
54516;DHT22;40422;45.892;4.738;2023-02-15T11:11:01;11.60;99.90
54516;DHT22;40422;45.892;4.738;2023-02-15T11:13:31;11.80;99.90
54516;DHT22;40422;45.892;4.738;2023-02-15T11:18:54;12.10;99.90
54516;DHT22;40422;45.892;4.738;2023-02-15T11:21:28;12.30;99.90
54516;DHT22;40422;45.892;4.738;2023-02-15T11:23:59;12.20;99.90
54516;DHT22;40422;45.892;4.738;2023-02-15T11:26:42;12.40;99.90
54516;DHT22;40422;45.892;4.738;2023-02-15T11:29:35;12.50;99.90
54516;DHT22;40422;45.892;4.738;2023-02-15T11:37:27;12.70;99.90
54516;DHT22;40422;45.892;4.738;2023-02-15T11:39:54;12.90;99.90
54516;DHT22;40422;45.892;4.738;2023-02-15T11:42:23;12.90;99.90
54516;DHT22;40422;45.892;4.738;2023-02-15T11:47:14;12.90;99.90
54516;DHT22;40422;45.892;4.738;2023-02-15T11:49:40;12.90;99.90
54516;DHT22;40422;45.892;4.738;2023-02-15T11:52:07;13.10;99.90
54516;DHT22;40422;45.892;4.738;2023-02-15T11:54:36;13.30;99.90
54516;DHT22;40422;45.892;4.738;2023-02-15T11:57:15;13.30;99.90
54516;DHT22;40422;45.892;4.738;2023-02-15T11:59:49;13.20;99.90
54516;DHT22;40422;45.892;4.738;2023-02-15T12:02:20;13.40;99.90
54516;DHT22;40422;45.892;4.738;2023-02-15T12:04:56;13.70;99.90
54516;DHT22;40422;45.892;4.738;2023-02-15T12:09:58;14.10;99.90
54516;DHT22;40422;45.892;4.738;2023-02-15T12:12:29;14.30;99.90
54516;DHT22;40422;45.892;4.738;2023-02-15T12:14:58;14.50;99.40
54516;DHT22;40422;45.892;4.738;2023-02-15T12:17:27;14.60;99.00
54516;DHT22;40422;45.892;4.738;2023-02-15T12:19:57;14.70;98.60
54516;DHT22;40422;45.892;4.738;2023-02-15T12:22:30;14.80;98.60
54516;DHT22;40422;45.892;4.738;2023-02-15T12:25:00;14.80;97.70
54516;DHT22;40422;45.892;4.738;2023-02-15T12:27:33;14.80;97.30
54516;DHT22;40422;45.892;4.738;2023-02-15T12:30:03;14.80;97.20
54516;DHT22;40422;45.892;4.738;2023-02-15T12:32:35;14.70;97.60
54516;DHT22;40422;45.892;4.738;2023-02-15T12:35:13;14.80;97.40
54516;DHT22;40422;45.892;4.738;2023-02-15T12:37:54;14.90;96.80
54516;DHT22;40422;45.892;4.738;2023-02-15T12:40:23;14.90;96.50
54516;DHT22;40422;45.892;4.738;2023-02-15T12:42:49;14.90;96.30
54516;DHT22;40422;45.892;4.738;2023-02-15T12:45:28;14.90;96.10
54516;DHT22;40422;45.892;4.738;2023-02-15T12:50:43;14.80;96.40
54516;DHT22;40422;45.892;4.738;2023-02-15T12:53:33;14.70;96.50
54516;DHT22;40422;45.892;4.738;2023-02-15T12:56:00;14.60;97.00
54516;DHT22;40422;45.892;4.738;2023-02-15T12:58:31;14.60;97.20
54516;DHT22;40422;45.892;4.738;2023-02-15T13:01:18;14.70;97.00
54516;DHT22;40422;45.892;4.738;2023-02-15T13:04:12;14.90;97.20
54516;DHT22;40422;45.892;4.738;2023-02-15T13:06:48;15.20;96.80
54516;DHT22;40422;45.892;4.738;2023-02-15T13:09:15;15.30;95.70
54516;DHT22;40422;45.892;4.738;2023-02-15T13:11:42;15.70;95.60
54516;DHT22;40422;45.892;4.738;2023-02-15T13:14:28;16.00;94.90
54516;DHT22;40422;45.892;4.738;2023-02-15T13:16:58;16.30;94.70
54516;DHT22;40422;45.892;4.738;2023-02-15T13:19:43;16.30;93.30
54516;DHT22;40422;45.892;4.738;2023-02-15T13:22:14;16.40;93.10
54516;DHT22;40422;45.892;4.738;2023-02-15T13:24:44;16.50;93.20
54516;DHT22;40422;45.892;4.738;2023-02-15T13:27:15;16.50;93.20
54516;DHT22;40422;45.892;4.738;2023-02-15T13:29:48;16.80;92.60
54516;DHT22;40422;45.892;4.738;2023-02-15T13:32:34;17.00;92.10
54516;DHT22;40422;45.892;4.738;2023-02-15T13:35:03;17.10;91.00
54516;DHT22;40422;45.892;4.738;2023-02-15T13:37:55;17.20;91.00
54516;DHT22;40422;45.892;4.738;2023-02-15T13:40:38;17.40;90.80
54516;DHT22;40422;45.892;4.738;2023-02-15T13:46:06;17.40;90.00
54516;DHT22;40422;45.892;4.738;2023-02-15T13:54:04;17.50;89.60
54516;DHT22;40422;45.892;4.738;2023-02-15T13:56:56;17.40;89.60
54516;DHT22;40422;45.892;4.738;2023-02-15T14:26:00;18.10;86.80
54516;DHT22;40422;45.892;4.738;2023-02-15T14:28:49;18.30;86.20
54516;DHT22;40422;45.892;4.738;2023-02-15T14:31:19;18.50;85.00
54516;DHT22;40422;45.892;4.738;2023-02-15T14:33:55;18.60;85.50
54516;DHT22;40422;45.892;4.738;2023-02-15T14:36:23;18.40;84.20
54516;DHT22;40422;45.892;4.738;2023-02-15T14:39:13;18.20;84.90
54516;DHT22;40422;45.892;4.738;2023-02-15T14:42:09;18.00;85.30
54516;DHT22;40422;45.892;4.738;2023-02-15T14:44:45;17.80;85.60
54516;DHT22;40422;45.892;4.738;2023-02-15T14:47:26;17.70;85.30
54516;DHT22;40422;45.892;4.738;2023-02-15T14:49:53;17.60;85.30
54516;DHT22;40422;45.892;4.738;2023-02-15T14:52:18;17.50;86.30
54516;DHT22;40422;45.892;4.738;2023-02-15T15:04:38;17.40;87.20
54516;DHT22;40422;45.892;4.738;2023-02-15T15:10:33;17.30;87.30
54516;DHT22;40422;45.892;4.738;2023-02-15T15:18:50;17.30;88.10
54516;DHT22;40422;45.892;4.738;2023-02-15T15:40:39;18.80;81.90
54516;DHT22;40422;45.892;4.738;2023-02-15T15:43:19;18.80;81.90
54516;DHT22;40422;45.892;4.738;2023-02-15T15:46:13;18.70;81.50
54516;DHT22;40422;45.892;4.738;2023-02-15T15:48:44;18.60;81.20
54516;DHT22;40422;45.892;4.738;2023-02-15T15:51:18;18.40;81.40
54516;DHT22;40422;45.892;4.738;2023-02-15T15:53:47;18.20;82.30
54516;DHT22;40422;45.892;4.738;2023-02-15T15:56:23;18.00;82.40
54516;DHT22;40422;45.892;4.738;2023-02-15T15:58:57;17.70;83.20
54516;DHT22;40422;45.892;4.738;2023-02-15T16:01:29;17.50;84.20
54516;DHT22;40422;45.892;4.738;2023-02-15T16:03:58;17.30;84.60
54516;DHT22;40422;45.892;4.738;2023-02-15T16:06:36;17.10;85.30
54516;DHT22;40422;45.892;4.738;2023-02-15T16:09:12;16.90;86.20
54516;DHT22;40422;45.892;4.738;2023-02-15T16:11:38;16.70;86.50
54516;DHT22;40422;45.892;4.738;2023-02-15T16:14:28;16.50;87.00
54516;DHT22;40422;45.892;4.738;2023-02-15T16:16:57;16.30;87.60
54516;DHT22;40422;45.892;4.738;2023-02-15T16:19:27;16.10;88.10
54516;DHT22;40422;45.892;4.738;2023-02-15T16:21:54;15.90;88.40
54516;DHT22;40422;45.892;4.738;2023-02-15T16:29:40;15.30;90.60
54516;DHT22;40422;45.892;4.738;2023-02-15T16:32:27;15.10;90.70
54516;DHT22;40422;45.892;4.738;2023-02-15T16:34:57;15.10;90.80
54516;DHT22;40422;45.892;4.738;2023-02-15T16:37:27;15.00;90.90
54516;DHT22;40422;45.892;4.738;2023-02-15T16:39:54;14.80;91.40
54516;DHT22;40422;45.892;4.738;2023-02-15T16:42:21;14.60;92.30
54516;DHT22;40422;45.892;4.738;2023-02-15T16:44:53;14.20;92.80
54516;DHT22;40422;45.892;4.738;2023-02-15T16:47:26;13.90;93.20
54516;DHT22;40422;45.892;4.738;2023-02-15T16:49:55;13.80;93.40
54516;DHT22;40422;45.892;4.738;2023-02-15T16:52:23;13.70;93.60
54516;DHT22;40422;45.892;4.738;2023-02-15T16:54:56;13.60;94.00
54516;DHT22;40422;45.892;4.738;2023-02-15T16:57:26;13.40;94.70
54516;DHT22;40422;45.892;4.738;2023-02-15T16:59:53;13.20;94.80
54516;DHT22;40422;45.892;4.738;2023-02-15T17:02:25;13.10;94.90
54516;DHT22;40422;45.892;4.738;2023-02-15T17:07:39;12.90;96.00
54516;DHT22;40422;45.892;4.738;2023-02-15T17:10:29;12.70;96.10
54516;DHT22;40422;45.892;4.738;2023-02-15T17:13:00;12.50;96.40
54516;DHT22;40422;45.892;4.738;2023-02-15T17:15:33;12.40;96.80
54516;DHT22;40422;45.892;4.738;2023-02-15T17:18:17;12.20;98.10
54516;DHT22;40422;45.892;4.738;2023-02-15T17:20:45;11.90;98.30
54516;DHT22;40422;45.892;4.738;2023-02-15T17:25:53;11.70;98.90
54516;DHT22;40422;45.892;4.738;2023-02-15T17:28:21;11.50;99.60
54516;DHT22;40422;45.892;4.738;2023-02-15T17:30:49;11.30;99.90
54516;DHT22;40422;45.892;4.738;2023-02-15T17:33:25;11.20;99.90
54516;DHT22;40422;45.892;4.738;2023-02-15T17:36:17;11.00;99.90
54516;DHT22;40422;45.892;4.738;2023-02-15T17:39:18;10.80;99.90
54516;DHT22;40422;45.892;4.738;2023-02-15T17:41:44;10.60;99.90
54516;DHT22;40422;45.892;4.738;2023-02-15T17:44:09;10.50;99.90
54516;DHT22;40422;45.892;4.738;2023-02-15T17:46:40;10.40;99.90
54516;DHT22;40422;45.892;4.738;2023-02-15T17:49:06;10.30;99.90
54516;DHT22;40422;45.892;4.738;2023-02-15T17:51:32;10.20;99.90
54516;DHT22;40422;45.892;4.738;2023-02-15T17:54:01;10.10;99.90
54516;DHT22;40422;45.892;4.738;2023-02-15T17:56:45;9.90;99.90
54516;DHT22;40422;45.892;4.738;2023-02-15T17:59:11;9.70;99.90
54516;DHT22;40422;45.892;4.738;2023-02-15T18:01:48;9.60;99.90
54516;DHT22;40422;45.892;4.738;2023-02-15T18:04:34;9.50;99.90
54516;DHT22;40422;45.892;4.738;2023-02-15T18:07:19;9.30;99.90
54516;DHT22;40422;45.892;4.738;2023-02-15T18:10:18;9.20;99.90
54516;DHT22;40422;45.892;4.738;2023-02-15T18:13:01;9.10;99.90
54516;DHT22;40422;45.892;4.738;2023-02-15T18:15:27;9.00;99.90
54516;DHT22;40422;45.892;4.738;2023-02-15T18:17:53;8.90;99.90
54516;DHT22;40422;45.892;4.738;2023-02-15T18:20:23;8.90;99.90
54516;DHT22;40422;45.892;4.738;2023-02-15T18:22:50;8.80;99.90
54516;DHT22;40422;45.892;4.738;2023-02-15T18:25:18;8.80;99.90
54516;DHT22;40422;45.892;4.738;2023-02-15T18:27:44;8.70;99.90
54516;DHT22;40422;45.892;4.738;2023-02-15T18:30:18;8.60;99.90
54516;DHT22;40422;45.892;4.738;2023-02-15T18:32:44;8.50;99.90
54516;DHT22;40422;45.892;4.738;2023-02-15T18:35:22;8.40;99.90
54516;DHT22;40422;45.892;4.738;2023-02-15T18:37:49;8.30;99.90
54516;DHT22;40422;45.892;4.738;2023-02-15T18:40:18;8.20;99.90
54516;DHT22;40422;45.892;4.738;2023-02-15T18:42:44;8.10;99.90
54516;DHT22;40422;45.892;4.738;2023-02-15T18:45:21;8.00;99.90
54516;DHT22;40422;45.892;4.738;2023-02-15T18:47:48;8.00;99.90
54516;DHT22;40422;45.892;4.738;2023-02-15T18:50:17;7.90;99.90
54516;DHT22;40422;45.892;4.738;2023-02-15T18:52:44;7.80;99.90
54516;DHT22;40422;45.892;4.738;2023-02-15T18:55:18;7.80;99.90
54516;DHT22;40422;45.892;4.738;2023-02-15T18:57:45;7.80;99.90
54516;DHT22;40422;45.892;4.738;2023-02-15T19:00:22;7.80;99.90
54516;DHT22;40422;45.892;4.738;2023-02-15T19:02:56;7.80;99.90
54516;DHT22;40422;45.892;4.738;2023-02-15T19:05:23;7.80;99.90
54516;DHT22;40422;45.892;4.738;2023-02-15T19:07:49;7.70;99.90
54516;DHT22;40422;45.892;4.738;2023-02-15T19:10:18;7.70;99.90
54516;DHT22;40422;45.892;4.738;2023-02-15T19:12:45;7.70;99.90
54516;DHT22;40422;45.892;4.738;2023-02-15T19:15:22;7.70;99.90
54516;DHT22;40422;45.892;4.738;2023-02-15T19:17:49;7.60;99.90
54516;DHT22;40422;45.892;4.738;2023-02-15T19:20:24;7.60;99.90
54516;DHT22;40422;45.892;4.738;2023-02-15T19:22:51;7.60;99.90
54516;DHT22;40422;45.892;4.738;2023-02-15T19:25:24;7.50;99.90
54516;DHT22;40422;45.892;4.738;2023-02-15T19:27:51;7.50;99.90
54516;DHT22;40422;45.892;4.738;2023-02-15T19:30:28;7.50;99.90
54516;DHT22;40422;45.892;4.738;2023-02-15T19:32:56;7.50;99.90
54516;DHT22;40422;45.892;4.738;2023-02-15T19:35:26;7.50;99.90
54516;DHT22;40422;45.892;4.738;2023-02-15T19:37:54;7.50;99.90
54516;DHT22;40422;45.892;4.738;2023-02-15T19:40:24;7.50;99.90
54516;DHT22;40422;45.892;4.738;2023-02-15T19:42:50;7.40;99.90
54516;DHT22;40422;45.892;4.738;2023-02-15T19:45:19;7.40;99.90
54516;DHT22;40422;45.892;4.738;2023-02-15T19:47:45;7.50;99.90
54516;DHT22;40422;45.892;4.738;2023-02-15T19:50:21;7.50;99.90
54516;DHT22;40422;45.892;4.738;2023-02-15T19:52:47;7.40;99.90
54516;DHT22;40422;45.892;4.738;2023-02-15T19:55:29;7.40;99.90
54516;DHT22;40422;45.892;4.738;2023-02-15T19:57:57;7.40;99.90
54516;DHT22;40422;45.892;4.738;2023-02-15T20:00:25;7.40;99.90
54516;DHT22;40422;45.892;4.738;2023-02-15T20:02:52;7.30;99.90
54516;DHT22;40422;45.892;4.738;2023-02-15T20:05:18;7.30;99.90
54516;DHT22;40422;45.892;4.738;2023-02-15T20:07:46;7.30;99.90
54516;DHT22;40422;45.892;4.738;2023-02-15T20:10:30;7.30;99.90
54516;DHT22;40422;45.892;4.738;2023-02-15T20:12:56;7.20;99.90
54516;DHT22;40422;45.892;4.738;2023-02-15T20:15:32;7.20;99.90
54516;DHT22;40422;45.892;4.738;2023-02-15T20:17:58;7.20;99.90
54516;DHT22;40422;45.892;4.738;2023-02-15T20:20:40;7.20;99.90
54516;DHT22;40422;45.892;4.738;2023-02-15T20:25:40;7.20;99.90
54516;DHT22;40422;45.892;4.738;2023-02-15T20:28:13;7.10;99.90
54516;DHT22;40422;45.892;4.738;2023-02-15T20:30:39;7.00;99.90
54516;DHT22;40422;45.892;4.738;2023-02-15T20:33:05;7.00;99.90
54516;DHT22;40422;45.892;4.738;2023-02-15T20:35:31;7.00;99.90
54516;DHT22;40422;45.892;4.738;2023-02-15T20:37:57;7.00;99.90
54516;DHT22;40422;45.892;4.738;2023-02-15T20:40:29;7.00;99.90
54516;DHT22;40422;45.892;4.738;2023-02-15T20:42:55;7.00;99.90
54516;DHT22;40422;45.892;4.738;2023-02-15T20:47:48;7.00;99.90
54516;DHT22;40422;45.892;4.738;2023-02-15T20:50:19;7.00;99.90
54516;DHT22;40422;45.892;4.738;2023-02-15T20:52:46;6.90;99.90
54516;DHT22;40422;45.892;4.738;2023-02-15T20:55:18;6.90;99.90
54516;DHT22;40422;45.892;4.738;2023-02-15T20:57:45;6.80;99.90
54516;DHT22;40422;45.892;4.738;2023-02-15T21:00:16;6.80;99.90
